sensor_id;sensor_type;location;lat;lon;timestamp;pressure;altitude;pressure_sealevel;temperature;humidity
27958;BME280;15295;42.658;23.374;2023-02-10T00:01:18;96326.13;;;0.85;40.17
27958;BME280;15295;42.658;23.374;2023-02-10T00:03:46;96292.25;;;0.65;40.04
27958;BME280;15295;42.658;23.374;2023-02-10T00:06:12;96250.41;;;0.40;40.37
27958;BME280;15295;42.658;23.374;2023-02-10T00:08:38;96317.84;;;0.81;40.05
27958;BME280;15295;42.658;23.374;2023-02-10T00:11:08;96324.13;;;0.90;39.96
27958;BME280;15295;42.658;23.374;2023-02-10T00:13:39;96307.34;;;0.79;39.66
27958;BME280;15295;42.658;23.374;2023-02-10T00:16:07;96317.84;;;0.81;40.09
27958;BME280;15295;42.658;23.374;2023-02-10T00:18:39;96299.13;;;0.71;40.03
27958;BME280;15295;42.658;23.374;2023-02-10T00:21:26;96325.69;;;0.77;40.14
27958;BME280;15295;42.658;23.374;2023-02-10T00:24:02;96281.94;;;0.53;40.22
27958;BME280;15295;42.658;23.374;2023-02-10T00:26:32;96304.69;;;0.61;40.19
27958;BME280;15295;42.658;23.374;2023-02-10T00:29:01;96314.56;;;0.65;40.44
27958;BME280;15295;42.658;23.374;2023-02-10T00:31:28;96314.72;;;0.74;40.36
27958;BME280;15295;42.658;23.374;2023-02-10T00:34:09;96276.94;;;0.47;40.61
27958;BME280;15295;42.658;23.374;2023-02-10T00:36:39;96271.13;;;0.40;40.45
27958;BME280;15295;42.658;23.374;2023-02-10T00:39:12;96305.50;;;0.61;40.32
27958;BME280;15295;42.658;23.374;2023-02-10T00:41:44;96268.44;;;0.40;40.51
27958;BME280;15295;42.658;23.374;2023-02-10T00:44:19;96273.00;;;0.39;40.55
27958;BME280;15295;42.658;23.374;2023-02-10T00:46:46;96295.31;;;0.58;40.38
27958;BME280;15295;42.658;23.374;2023-02-10T00:49:17;96303.06;;;0.60;40.27
27958;BME280;15295;42.658;23.374;2023-02-10T00:51:43;96269.97;;;0.27;40.11
27958;BME280;15295;42.658;23.374;2023-02-10T00:54:12;96251.84;;;0.14;39.93
27958;BME280;15295;42.658;23.374;2023-02-10T00:56:40;96283.81;;;0.16;40.35
27958;BME280;15295;42.658;23.374;2023-02-10T00:59:13;96288.28;;;0.25;40.54
27958;BME280;15295;42.658;23.374;2023-02-10T01:01:44;96278.81;;;0.09;40.48
27958;BME280;15295;42.658;23.374;2023-02-10T01:04:11;96251.81;;;-0.23;40.76
27958;BME280;15295;42.658;23.374;2023-02-10T01:06:38;96290.41;;;0.05;40.91
27958;BME280;15295;42.658;23.374;2023-02-10T01:09:11;96279.66;;;0.05;40.99
27958;BME280;15295;42.658;23.374;2023-02-10T01:11:48;96241.47;;;-0.11;40.50
27958;BME280;15295;42.658;23.374;2023-02-10T01:14:15;96285.34;;;0.22;40.98
27958;BME280;15295;42.658;23.374;2023-02-10T01:16:42;96246.41;;;0.00;40.66
27958;BME280;15295;42.658;23.374;2023-02-10T01:19:09;96237.47;;;0.05;40.68
27958;BME280;15295;42.658;23.374;2023-02-10T01:21:35;96265.81;;;0.35;40.73
27958;BME280;15295;42.658;23.374;2023-02-10T01:24:03;96274.38;;;0.37;40.08
27958;BME280;15295;42.658;23.374;2023-02-10T01:26:28;96232.44;;;-0.02;40.33
27958;BME280;15295;42.658;23.374;2023-02-10T01:28:55;96268.19;;;0.18;39.95
27958;BME280;15295;42.658;23.374;2023-02-10T01:31:22;96218.31;;;-0.07;40.01
27958;BME280;15295;42.658;23.374;2023-02-10T01:33:52;96248.38;;;0.14;40.09
27958;BME280;15295;42.658;23.374;2023-02-10T01:36:22;96228.44;;;-0.04;40.01
27958;BME280;15295;42.658;23.374;2023-02-10T01:38:47;96241.09;;;-0.05;40.01
27958;BME280;15295;42.658;23.374;2023-02-10T01:41:16;96262.41;;;0.11;39.99
27958;BME280;15295;42.658;23.374;2023-02-10T01:46:30;96224.03;;;-0.14;39.90
27958;BME280;15295;42.658;23.374;2023-02-10T01:49:09;96235.69;;;-0.42;40.07
27958;BME280;15295;42.658;23.374;2023-02-10T01:51:48;96220.50;;;-0.51;40.45
27958;BME280;15295;42.658;23.374;2023-02-10T01:54:24;96206.38;;;-0.62;40.33
27958;BME280;15295;42.658;23.374;2023-02-10T01:56:53;96242.38;;;-0.63;40.86
27958;BME280;15295;42.658;23.374;2023-02-10T01:59:27;96244.56;;;-0.65;41.02
27958;BME280;15295;42.658;23.374;2023-02-10T02:02:19;96229.06;;;-0.73;41.14
27958;BME280;15295;42.658;23.374;2023-02-10T02:07:40;96182.25;;;-1.09;41.36
27958;BME280;15295;42.658;23.374;2023-02-10T02:10:15;96202.66;;;-1.13;41.89
27958;BME280;15295;42.658;23.374;2023-02-10T02:12:57;96220.31;;;-1.07;41.61
27958;BME280;15295;42.658;23.374;2023-02-10T02:15:51;96201.63;;;-1.17;41.84
27958;BME280;15295;42.658;23.374;2023-02-10T02:18:39;96197.41;;;-1.23;42.08
27958;BME280;15295;42.658;23.374;2023-02-10T02:21:26;96224.28;;;-1.28;42.33
27958;BME280;15295;42.658;23.374;2023-02-10T02:24:05;96209.78;;;-1.27;42.56
27958;BME280;15295;42.658;23.374;2023-02-10T02:35:51;96218.34;;;-0.97;42.33
27958;BME280;15295;42.658;23.374;2023-02-10T02:38:18;96198.44;;;-0.96;42.22
27958;BME280;15295;42.658;23.374;2023-02-10T02:40:44;96170.63;;;-1.05;42.30
27958;BME280;15295;42.658;23.374;2023-02-10T02:43:10;96164.72;;;-1.02;42.06
27958;BME280;15295;42.658;23.374;2023-02-10T02:45:42;96209.78;;;-0.75;42.40
27958;BME280;15295;42.658;23.374;2023-02-10T02:48:16;96214.50;;;-0.67;42.34
27958;BME280;15295;42.658;23.374;2023-02-10T03:01:49;96207.16;;;-0.38;41.37
27958;BME280;15295;42.658;23.374;2023-02-10T03:04:23;96168.47;;;-0.79;41.73
27958;BME280;15295;42.658;23.374;2023-02-10T03:06:52;96199.72;;;-0.64;41.64
27958;BME280;15295;42.658;23.374;2023-02-10T03:09:17;96150.44;;;-0.97;41.58
27958;BME280;15295;42.658;23.374;2023-02-10T03:11:43;96183.72;;;-0.74;41.91
27958;BME280;15295;42.658;23.374;2023-02-10T03:14:09;96185.31;;;-0.73;41.70
27958;BME280;15295;42.658;23.374;2023-02-10T03:16:35;96155.94;;;-0.84;41.68
27958;BME280;15295;42.658;23.374;2023-02-10T03:19:02;96163.31;;;-0.94;41.92
27958;BME280;15295;42.658;23.374;2023-02-10T03:21:28;96165.91;;;-0.89;42.02
27958;BME280;15295;42.658;23.374;2023-02-10T03:23:59;96187.53;;;-0.81;42.09
27958;BME280;15295;42.658;23.374;2023-02-10T03:26:32;96174.75;;;-0.89;42.09
27958;BME280;15295;42.658;23.374;2023-02-10T03:28:58;96197.88;;;-0.69;42.07
27958;BME280;15295;42.658;23.374;2023-02-10T03:31:23;96173.31;;;-0.81;41.96
27958;BME280;15295;42.658;23.374;2023-02-10T03:33:53;96167.78;;;-0.90;42.24
27958;BME280;15295;42.658;23.374;2023-02-10T03:36:20;96217.09;;;-0.62;42.32
27958;BME280;15295;42.658;23.374;2023-02-10T03:38:46;96188.97;;;-0.64;42.37
27958;BME280;15295;42.658;23.374;2023-02-10T03:41:14;96174.88;;;-0.75;42.20
27958;BME280;15295;42.658;23.374;2023-02-10T03:43:40;96186.97;;;-0.54;42.11
27958;BME280;15295;42.658;23.374;2023-02-10T03:46:08;96161.09;;;-0.68;41.89
27958;BME280;15295;42.658;23.374;2023-02-10T03:48:35;96148.59;;;-0.78;41.73
27958;BME280;15295;42.658;23.374;2023-02-10T03:51:04;96159.19;;;-0.68;41.97
27958;BME280;15295;42.658;23.374;2023-02-10T03:53:31;96161.50;;;-0.80;41.97
27958;BME280;15295;42.658;23.374;2023-02-10T03:56:02;96160.19;;;-0.83;42.21
27958;BME280;15295;42.658;23.374;2023-02-10T03:58:27;96144.72;;;-0.91;42.50
27958;BME280;15295;42.658;23.374;2023-02-10T04:01:08;96191.81;;;-0.56;42.48
27958;BME280;15295;42.658;23.374;2023-02-10T04:03:41;96158.78;;;-0.75;42.21
27958;BME280;15295;42.658;23.374;2023-02-10T04:06:10;96149.16;;;-0.81;42.27
27958;BME280;15295;42.658;23.374;2023-02-10T04:08:36;96148.81;;;-0.74;42.20
27958;BME280;15295;42.658;23.374;2023-02-10T04:11:03;96179.34;;;-0.47;42.35
27958;BME280;15295;42.658;23.374;2023-02-10T04:13:29;96154.44;;;-0.71;42.45
27958;BME280;15295;42.658;23.374;2023-02-10T04:16:25;96189.56;;;-0.49;42.29
27958;BME280;15295;42.658;23.374;2023-02-10T04:18:54;96152.25;;;-0.69;42.24
27958;BME280;15295;42.658;23.374;2023-02-10T04:21:21;96190.59;;;-0.45;42.39
27958;BME280;15295;42.658;23.374;2023-02-10T04:23:48;96174.03;;;-0.52;41.96
27958;BME280;15295;42.658;23.374;2023-02-10T04:26:14;96173.13;;;-0.66;42.50
27958;BME280;15295;42.658;23.374;2023-02-10T04:28:42;96140.72;;;-0.93;42.54
27958;BME280;15295;42.658;23.374;2023-02-10T04:31:09;96163.69;;;-0.82;42.89
27958;BME280;15295;42.658;23.374;2023-02-10T04:33:35;96155.13;;;-0.84;42.79
27958;BME280;15295;42.658;23.374;2023-02-10T04:36:04;96188.13;;;-0.60;42.55
27958;BME280;15295;42.658;23.374;2023-02-10T04:38:30;96148.09;;;-0.80;42.38
27958;BME280;15295;42.658;23.374;2023-02-10T04:41:03;96144.31;;;-0.79;42.67
27958;BME280;15295;42.658;23.374;2023-02-10T04:43:32;96164.31;;;-0.66;42.92
27958;BME280;15295;42.658;23.374;2023-02-10T04:45:57;96198.31;;;-0.62;43.23
27958;BME280;15295;42.658;23.374;2023-02-10T04:48:26;96163.69;;;-0.82;43.29
27958;BME280;15295;42.658;23.374;2023-02-10T04:50:53;96192.44;;;-0.64;43.34
27958;BME280;15295;42.658;23.374;2023-02-10T04:53:19;96166.38;;;-0.82;43.47
27958;BME280;15295;42.658;23.374;2023-02-10T04:55:45;96188.50;;;-0.71;43.30
27958;BME280;15295;42.658;23.374;2023-02-10T04:58:11;96184.06;;;-0.81;43.43
27958;BME280;15295;42.658;23.374;2023-02-10T05:00:36;96144.34;;;-1.03;43.61
27958;BME280;15295;42.658;23.374;2023-02-10T05:03:03;96184.81;;;-0.75;43.87
27958;BME280;15295;42.658;23.374;2023-02-10T05:05:29;96154.66;;;-0.91;43.56
27958;BME280;15295;42.658;23.374;2023-02-10T05:07:55;96199.41;;;-0.63;43.38
27958;BME280;15295;42.658;23.374;2023-02-10T05:10:20;96184.22;;;-0.72;43.03
27958;BME280;15295;42.658;23.374;2023-02-10T05:12:49;96205.81;;;-0.59;43.40
27958;BME280;15295;42.658;23.374;2023-02-10T05:15:22;96175.50;;;-0.83;43.36
27958;BME280;15295;42.658;23.374;2023-02-10T05:17:57;96189.41;;;-0.81;43.70
27958;BME280;15295;42.658;23.374;2023-02-10T05:20:23;96189.41;;;-0.81;43.56
27958;BME280;15295;42.658;23.374;2023-02-10T05:22:52;96220.69;;;-0.66;43.48
27958;BME280;15295;42.658;23.374;2023-02-10T05:25:17;96213.03;;;-0.78;43.39
27958;BME280;15295;42.658;23.374;2023-02-10T05:27:43;96235.97;;;-0.67;43.31
27958;BME280;15295;42.658;23.374;2023-02-10T05:30:10;96230.66;;;-0.72;43.69
27958;BME280;15295;42.658;23.374;2023-02-10T05:32:38;96167.34;;;-1.20;43.30
27958;BME280;15295;42.658;23.374;2023-02-10T05:35:05;96219.34;;;-0.93;43.44
27958;BME280;15295;42.658;23.374;2023-02-10T05:37:30;96204.44;;;-1.04;43.16
27958;BME280;15295;42.658;23.374;2023-02-10T05:39:58;96255.16;;;-0.79;43.30
27958;BME280;15295;42.658;23.374;2023-02-10T05:42:24;96201.59;;;-1.12;43.53
27958;BME280;15295;42.658;23.374;2023-02-10T05:44:50;96238.63;;;-0.86;43.44
27958;BME280;15295;42.658;23.374;2023-02-10T05:47:16;96212.88;;;-0.92;43.26
27958;BME280;15295;42.658;23.374;2023-02-10T05:49:42;96235.28;;;-0.77;42.94
27958;BME280;15295;42.658;23.374;2023-02-10T05:52:13;96216.25;;;-0.81;42.64
27958;BME280;15295;42.658;23.374;2023-02-10T05:54:41;96224.56;;;-0.77;42.59
27958;BME280;15295;42.658;23.374;2023-02-10T05:57:07;96225.38;;;-0.77;42.53
27958;BME280;15295;42.658;23.374;2023-02-10T05:59:32;96260.25;;;-0.53;42.07
27958;BME280;15295;42.658;23.374;2023-02-10T06:02:03;96196.00;;;-0.92;42.22
27958;BME280;15295;42.658;23.374;2023-02-10T06:04:29;96249.78;;;-0.55;42.27
27958;BME280;15295;42.658;23.374;2023-02-10T06:06:54;96264.03;;;-0.54;42.20
27958;BME280;15295;42.658;23.374;2023-02-10T06:09:20;96259.97;;;-0.52;42.33
27958;BME280;15295;42.658;23.374;2023-02-10T06:11:50;96230.09;;;-0.69;42.27
27958;BME280;15295;42.658;23.374;2023-02-10T06:14:17;96242.38;;;-0.63;41.72
27958;BME280;15295;42.658;23.374;2023-02-10T06:16:46;96258.81;;;-0.46;41.85
27958;BME280;15295;42.658;23.374;2023-02-10T06:19:11;96257.94;;;-0.60;41.86
27958;BME280;15295;42.658;23.374;2023-02-10T06:21:38;96251.28;;;-0.67;41.89
27958;BME280;15295;42.658;23.374;2023-02-10T06:24:05;96239.00;;;-0.73;41.82
27958;BME280;15295;42.658;23.374;2023-02-10T06:26:30;96290.03;;;-0.50;42.10
27958;BME280;15295;42.658;23.374;2023-02-10T06:28:56;96298.09;;;-0.50;42.01
27958;BME280;15295;42.658;23.374;2023-02-10T06:31:23;96267.41;;;-0.67;42.03
27958;BME280;15295;42.658;23.374;2023-02-10T06:33:51;96287.50;;;-0.65;41.78
27958;BME280;15295;42.658;23.374;2023-02-10T06:36:17;96297.78;;;-0.72;42.00
27958;BME280;15295;42.658;23.374;2023-02-10T06:38:42;96245.22;;;-1.02;42.07
27958;BME280;15295;42.658;23.374;2023-02-10T06:41:07;96216.53;;;-1.06;42.04
27958;BME280;15295;42.658;23.374;2023-02-10T06:43:36;96263.97;;;-0.73;42.17
27958;BME280;15295;42.658;23.374;2023-02-10T06:46:09;96295.88;;;-0.43;42.14
27958;BME280;15295;42.658;23.374;2023-02-10T06:49:04;96273.78;;;-0.40;42.00
27958;BME280;15295;42.658;23.374;2023-02-10T06:51:29;96267.56;;;-0.35;41.60
27958;BME280;15295;42.658;23.374;2023-02-10T06:53:58;96221.34;;;-0.56;41.66
27958;BME280;15295;42.658;23.374;2023-02-10T06:56:23;96267.44;;;-0.25;41.44
27958;BME280;15295;42.658;23.374;2023-02-10T06:58:50;96312.22;;;0.03;41.43
27958;BME280;15295;42.658;23.374;2023-02-10T07:01:21;96316.38;;;0.14;41.11
27958;BME280;15295;42.658;23.374;2023-02-10T07:03:50;96301.63;;;0.12;41.07
27958;BME280;15295;42.658;23.374;2023-02-10T07:06:17;96288.25;;;0.07;41.02
27958;BME280;15295;42.658;23.374;2023-02-10T07:08:44;96274.44;;;0.13;40.95
27958;BME280;15295;42.658;23.374;2023-02-10T07:11:13;96299.03;;;0.44;40.56
27958;BME280;15295;42.658;23.374;2023-02-10T07:13:39;96315.50;;;0.56;40.58
27958;BME280;15295;42.658;23.374;2023-02-10T07:16:05;96273.72;;;0.26;40.44
27958;BME280;15295;42.658;23.374;2023-02-10T07:18:31;96260.13;;;0.18;40.45
27958;BME280;15295;42.658;23.374;2023-02-10T07:21:01;96261.25;;;0.17;40.47
27958;BME280;15295;42.658;23.374;2023-02-10T07:23:30;96260.63;;;0.20;40.67
27958;BME280;15295;42.658;23.374;2023-02-10T07:25:56;96312.03;;;0.55;40.51
27958;BME280;15295;42.658;23.374;2023-02-10T07:28:22;96291.53;;;0.59;40.67
27958;BME280;15295;42.658;23.374;2023-02-10T07:30:51;96254.25;;;0.34;40.49
27958;BME280;15295;42.658;23.374;2023-02-10T07:33:20;96303.34;;;0.77;40.87
27958;BME280;15295;42.658;23.374;2023-02-10T07:35:49;96283.13;;;0.79;40.55
27958;BME280;15295;42.658;23.374;2023-02-10T07:38:15;96292.25;;;0.97;40.59
27958;BME280;15295;42.658;23.374;2023-02-10T07:40:40;96302.50;;;1.27;40.54
27958;BME280;15295;42.658;23.374;2023-02-10T07:43:06;96296.25;;;1.45;40.36
27958;BME280;15295;42.658;23.374;2023-02-10T07:45:33;96252.34;;;1.45;40.68
27958;BME280;15295;42.658;23.374;2023-02-10T07:47:58;96264.47;;;2.10;39.54
27958;BME280;15295;42.658;23.374;2023-02-10T07:50:25;96276.97;;;2.56;38.63
27958;BME280;15295;42.658;23.374;2023-02-10T07:52:52;96266.97;;;2.78;38.09
27958;BME280;15295;42.658;23.374;2023-02-10T07:55:18;96298.75;;;3.26;37.93
27958;BME280;15295;42.658;23.374;2023-02-10T07:57:45;96255.06;;;3.63;37.24
27958;BME280;15295;42.658;23.374;2023-02-10T08:00:11;96267.81;;;4.19;36.06
27958;BME280;15295;42.658;23.374;2023-02-10T08:02:43;96290.13;;;4.93;35.30
27958;BME280;15295;42.658;23.374;2023-02-10T08:05:17;96242.66;;;4.95;35.03
27958;BME280;15295;42.658;23.374;2023-02-10T08:07:44;96235.41;;;5.25;34.62
27958;BME280;15295;42.658;23.374;2023-02-10T08:10:09;96228.28;;;5.58;33.72
27958;BME280;15295;42.658;23.374;2023-02-10T08:12:37;96312.09;;;6.27;32.66
27958;BME280;15295;42.658;23.374;2023-02-10T08:15:08;96296.09;;;6.63;32.10
27958;BME280;15295;42.658;23.374;2023-02-10T08:17:37;96259.78;;;6.88;31.58
27958;BME280;15295;42.658;23.374;2023-02-10T08:20:06;96283.47;;;7.20;30.65
27958;BME280;15295;42.658;23.374;2023-02-10T08:22:33;96265.34;;;7.24;30.59
27958;BME280;15295;42.658;23.374;2023-02-10T08:25:02;96296.03;;;7.45;30.88
27958;BME280;15295;42.658;23.374;2023-02-10T08:27:34;96296.31;;;7.76;30.16
27958;BME280;15295;42.658;23.374;2023-02-10T08:30:17;96275.25;;;7.98;29.30
27958;BME280;15295;42.658;23.374;2023-02-10T08:32:53;96271.88;;;8.25;28.32
27958;BME280;15295;42.658;23.374;2023-02-10T08:35:19;96284.44;;;8.17;28.47
27958;BME280;15295;42.658;23.374;2023-02-10T08:38:10;96307.72;;;8.63;29.09
27958;BME280;15295;42.658;23.374;2023-02-10T08:40:45;96291.09;;;8.92;28.03
27958;BME280;15295;42.658;23.374;2023-02-10T08:43:25;96294.63;;;9.20;27.57
27958;BME280;15295;42.658;23.374;2023-02-10T08:46:00;96271.94;;;9.16;27.20
27958;BME280;15295;42.658;23.374;2023-02-10T08:48:27;96277.53;;;9.08;27.93
27958;BME280;15295;42.658;23.374;2023-02-10T08:50:54;96274.41;;;9.21;27.49
27958;BME280;15295;42.658;23.374;2023-02-10T08:53:21;96271.13;;;9.16;27.42
27958;BME280;15295;42.658;23.374;2023-02-10T08:56:17;96301.91;;;9.72;27.25
27958;BME280;15295;42.658;23.374;2023-02-10T08:58:44;96267.94;;;10.00;26.92
27958;BME280;15295;42.658;23.374;2023-02-10T09:01:23;96294.28;;;10.55;26.14
27958;BME280;15295;42.658;23.374;2023-02-10T09:03:52;96272.78;;;10.38;26.14
27958;BME280;15295;42.658;23.374;2023-02-10T09:06:26;96254.06;;;10.56;25.90
27958;BME280;15295;42.658;23.374;2023-02-10T09:08:58;96264.84;;;11.03;25.39
27958;BME280;15295;42.658;23.374;2023-02-10T09:11:36;96273.66;;;11.50;24.88
27958;BME280;15295;42.658;23.374;2023-02-10T09:14:12;96243.22;;;11.55;24.77
27958;BME280;15295;42.658;23.374;2023-02-10T09:16:38;96247.72;;;11.44;23.92
27958;BME280;15295;42.658;23.374;2023-02-10T09:19:04;96244.09;;;11.21;24.54
27958;BME280;15295;42.658;23.374;2023-02-10T09:21:37;96278.31;;;11.49;24.33
27958;BME280;15295;42.658;23.374;2023-02-10T09:24:17;96243.19;;;11.13;23.87
27958;BME280;15295;42.658;23.374;2023-02-10T09:27:03;96256.00;;;10.90;24.42
27958;BME280;15295;42.658;23.374;2023-02-10T09:29:49;96257.50;;;10.88;24.70
27958;BME280;15295;42.658;23.374;2023-02-10T09:32:33;96225.22;;;10.58;24.53
27958;BME280;15295;42.658;23.374;2023-02-10T09:36:22;96214.00;;;10.63;24.95
27958;BME280;15295;42.658;23.374;2023-02-10T09:39:09;96264.16;;;11.44;24.32
27958;BME280;15295;42.658;23.374;2023-02-10T09:42:20;96267.75;;;11.67;24.44
27958;BME280;15295;42.658;23.374;2023-02-10T09:45:07;96243.63;;;11.76;23.52
27958;BME280;15295;42.658;23.374;2023-02-10T09:49:11;96225.13;;;11.92;23.51
27958;BME280;15295;42.658;23.374;2023-02-10T09:52:17;96245.47;;;11.91;23.14
27958;BME280;15295;42.658;23.374;2023-02-10T09:54:39;96239.31;;;11.98;23.47
27958;BME280;15295;42.658;23.374;2023-02-10T09:57:40;96236.03;;;12.11;23.00
27958;BME280;15295;42.658;23.374;2023-02-10T10:00:43;96228.84;;;12.03;23.42
27958;BME280;15295;42.658;23.374;2023-02-10T10:03:18;96249.00;;;12.40;23.31
27958;BME280;15295;42.658;23.374;2023-02-10T10:06:30;96207.22;;;12.47;23.20
27958;BME280;15295;42.658;23.374;2023-02-10T10:09:43;96207.41;;;13.17;22.36
27958;BME280;15295;42.658;23.374;2023-02-10T10:12:18;96215.94;;;13.82;22.16
27958;BME280;15295;42.658;23.374;2023-02-10T10:14:50;96215.53;;;14.24;21.54
27958;BME280;15295;42.658;23.374;2023-02-10T10:30:33;96213.56;;;14.82;20.86
27958;BME280;15295;42.658;23.374;2023-02-10T10:33:17;96188.94;;;15.03;20.43
27958;BME280;15295;42.658;23.374;2023-02-10T10:36:00;96178.78;;;15.35;19.81
27958;BME280;15295;42.658;23.374;2023-02-10T10:38:35;96177.72;;;15.54;19.90
27958;BME280;15295;42.658;23.374;2023-02-10T10:41:13;96182.06;;;15.69;19.26
27958;BME280;15295;42.658;23.374;2023-02-10T10:43:50;96152.81;;;15.29;19.29
27958;BME280;15295;42.658;23.374;2023-02-10T10:46:43;96192.19;;;15.40;19.57
27958;BME280;15295;42.658;23.374;2023-02-10T10:49:11;96196.66;;;14.80;19.99
27958;BME280;15295;42.658;23.374;2023-02-10T10:51:39;96191.75;;;14.49;19.96
27958;BME280;15295;42.658;23.374;2023-02-10T10:54:06;96156.75;;;14.42;20.49
27958;BME280;15295;42.658;23.374;2023-02-10T10:56:50;96187.75;;;14.39;20.53
27958;BME280;15295;42.658;23.374;2023-02-10T10:59:43;96169.25;;;14.33;20.45
27958;BME280;15295;42.658;23.374;2023-02-10T11:02:19;96146.59;;;14.53;20.44
27958;BME280;15295;42.658;23.374;2023-02-10T11:05:02;96153.94;;;15.14;20.09
27958;BME280;15295;42.658;23.374;2023-02-10T11:07:32;96151.66;;;15.34;19.14
27958;BME280;15295;42.658;23.374;2023-02-10T11:10:02;96156.00;;;15.38;19.53
27958;BME280;15295;42.658;23.374;2023-02-10T11:12:39;96134.00;;;15.60;19.28
27958;BME280;15295;42.658;23.374;2023-02-10T11:18:18;96164.34;;;16.41;19.08
27958;BME280;15295;42.658;23.374;2023-02-10T11:21:03;96148.59;;;16.52;18.89
27958;BME280;15295;42.658;23.374;2023-02-10T11:23:46;96124.84;;;16.79;18.12
27958;BME280;15295;42.658;23.374;2023-02-10T11:26:27;96155.09;;;17.14;18.50
27958;BME280;15295;42.658;23.374;2023-02-10T11:28:55;96144.41;;;17.20;18.22
27958;BME280;15295;42.658;23.374;2023-02-10T11:31:33;96153.94;;;17.12;18.03
27958;BME280;15295;42.658;23.374;2023-02-10T11:34:25;96126.88;;;16.71;17.99
27958;BME280;15295;42.658;23.374;2023-02-10T11:36:57;96129.66;;;16.68;18.10
27958;BME280;15295;42.658;23.374;2023-02-10T11:39:37;96114.66;;;16.65;18.09
27958;BME280;15295;42.658;23.374;2023-02-10T11:42:17;96100.50;;;16.53;17.69
27958;BME280;15295;42.658;23.374;2023-02-10T11:47:38;96132.31;;;16.85;17.98
27958;BME280;15295;42.658;23.374;2023-02-10T11:50:24;96142.19;;;16.93;17.72
27958;BME280;15295;42.658;23.374;2023-02-10T11:52:50;96113.47;;;16.66;17.86
27958;BME280;15295;42.658;23.374;2023-02-10T11:55:20;96109.88;;;16.80;17.93
27958;BME280;15295;42.658;23.374;2023-02-10T12:01:44;96125.41;;;17.36;17.78
27958;BME280;15295;42.658;23.374;2023-02-10T12:04:43;96121.41;;;17.51;17.70
27958;BME280;15295;42.658;23.374;2023-02-10T12:10:33;96116.56;;;17.65;16.94
27958;BME280;15295;42.658;23.374;2023-02-10T12:16:42;96060.03;;;17.05;17.44
27958;BME280;15295;42.658;23.374;2023-02-10T12:19:47;96097.78;;;17.32;17.56
27958;BME280;15295;42.658;23.374;2023-02-10T12:34:33;96093.31;;;16.73;17.40
27958;BME280;15295;42.658;23.374;2023-02-10T12:45:45;96084.69;;;16.64;17.90
27958;BME280;15295;42.658;23.374;2023-02-10T12:58:30;96062.28;;;16.34;17.37
27958;BME280;15295;42.658;23.374;2023-02-10T13:12:48;96080.75;;;16.47;17.39
27958;BME280;15295;42.658;23.374;2023-02-10T13:16:09;96079.25;;;16.11;18.35
27958;BME280;15295;42.658;23.374;2023-02-10T13:21:34;96080.81;;;16.51;17.48
27958;BME280;15295;42.658;23.374;2023-02-10T13:24:24;96076.03;;;16.51;17.33
27958;BME280;15295;42.658;23.374;2023-02-10T13:27:05;96048.06;;;16.46;17.49
27958;BME280;15295;42.658;23.374;2023-02-10T13:36:27;96073.69;;;16.46;17.57
27958;BME280;15295;42.658;23.374;2023-02-10T13:39:36;96073.31;;;16.37;17.63
27958;BME280;15295;42.658;23.374;2023-02-10T13:45:20;96069.47;;;15.82;18.00
27958;BME280;15295;42.658;23.374;2023-02-10T13:48:07;95994.63;;;15.09;17.85
27958;BME280;15295;42.658;23.374;2023-02-10T13:50:54;96045.06;;;15.52;18.27
27958;BME280;15295;42.658;23.374;2023-02-10T13:56:23;96062.75;;;15.48;18.38
27958;BME280;15295;42.658;23.374;2023-02-10T13:59:24;96040.66;;;15.19;18.71
27958;BME280;15295;42.658;23.374;2023-02-10T14:02:24;96025.69;;;15.06;18.57
27958;BME280;15295;42.658;23.374;2023-02-10T14:05:22;96035.16;;;15.05;18.70
27958;BME280;15295;42.658;23.374;2023-02-10T14:07:54;95998.03;;;14.53;18.94
27958;BME280;15295;42.658;23.374;2023-02-10T14:13:23;96057.06;;;14.66;18.69
27958;BME280;15295;42.658;23.374;2023-02-10T14:16:04;96063.22;;;14.46;18.73
27958;BME280;15295;42.658;23.374;2023-02-10T14:18:38;96041.44;;;14.16;19.03
27958;BME280;15295;42.658;23.374;2023-02-10T14:21:16;96040.59;;;14.02;18.95
27958;BME280;15295;42.658;23.374;2023-02-10T14:23:54;96026.72;;;13.84;19.06
27958;BME280;15295;42.658;23.374;2023-02-10T14:26:32;96040.41;;;13.73;19.03
27958;BME280;15295;42.658;23.374;2023-02-10T14:29:14;96049.69;;;13.58;19.34
27958;BME280;15295;42.658;23.374;2023-02-10T14:32:04;96050.72;;;13.36;19.96
27958;BME280;15295;42.658;23.374;2023-02-10T14:34:35;96040.28;;;13.12;20.13
27958;BME280;15295;42.658;23.374;2023-02-10T14:37:20;96045.16;;;12.92;20.54
27958;BME280;15295;42.658;23.374;2023-02-10T14:40:17;96021.28;;;12.60;20.98
27958;BME280;15295;42.658;23.374;2023-02-10T14:42:53;95999.03;;;12.31;21.08
27958;BME280;15295;42.658;23.374;2023-02-10T14:45:40;96018.88;;;12.21;21.74
27958;BME280;15295;42.658;23.374;2023-02-10T14:48:14;96028.06;;;12.06;21.97
27958;BME280;15295;42.658;23.374;2023-02-10T14:50:56;96042.94;;;12.05;22.01
27958;BME280;15295;42.658;23.374;2023-02-10T14:53:22;96038.00;;;11.88;22.30
27958;BME280;15295;42.658;23.374;2023-02-10T14:55:56;96036.25;;;11.77;22.28
27958;BME280;15295;42.658;23.374;2023-02-10T14:58:30;96042.91;;;11.76;22.60
27958;BME280;15295;42.658;23.374;2023-02-10T15:01:30;96047.38;;;11.61;22.70
27958;BME280;15295;42.658;23.374;2023-02-10T15:04:08;96048.13;;;11.35;23.60
27958;BME280;15295;42.658;23.374;2023-02-10T15:06:37;96008.09;;;10.59;24.35
27958;BME280;15295;42.658;23.374;2023-02-10T15:09:19;96043.56;;;10.56;24.72
27958;BME280;15295;42.658;23.374;2023-02-10T15:12:03;96034.22;;;10.38;24.87
27958;BME280;15295;42.658;23.374;2023-02-10T15:14:50;96054.00;;;10.31;25.21
27958;BME280;15295;42.658;23.374;2023-02-10T15:17:44;96049.13;;;10.05;25.70
27958;BME280;15295;42.658;23.374;2023-02-10T15:20:30;96051.06;;;9.86;25.71
27958;BME280;15295;42.658;23.374;2023-02-10T15:23:15;96061.91;;;9.82;26.06
27958;BME280;15295;42.658;23.374;2023-02-10T15:26:24;95990.72;;;9.21;26.19